sensor_id;sensor_type;location;lat;lon;timestamp;pressure;altitude;pressure_sealevel;temperature;humidity
62025;BME280;47978;49.118;12.146;2023-04-05T00:03:12;98043.56;;;-1.09;73.15
62025;BME280;47978;49.118;12.146;2023-04-05T00:07:14;98042.78;;;-1.17;72.67
62025;BME280;47978;49.118;12.146;2023-04-05T00:11:15;98041.03;;;-1.04;71.25
62025;BME280;47978;49.118;12.146;2023-04-05T00:15:17;98033.28;;;-1.01;70.55
62025;BME280;47978;49.118;12.146;2023-04-05T00:19:19;98035.22;;;-1.08;70.13
62025;BME280;47978;49.118;12.146;2023-04-05T00:23:21;98038.06;;;-0.96;70.11
62025;BME280;47978;49.118;12.146;2023-04-05T00:27:22;98028.84;;;-0.95;69.62
62025;BME280;47978;49.118;12.146;2023-04-05T00:31:23;98026.19;;;-1.02;69.84
62025;BME280;47978;49.118;12.146;2023-04-05T00:35:27;98020.50;;;-0.94;68.16
62025;BME280;47978;49.118;12.146;2023-04-05T00:39:28;98020.91;;;-0.90;68.66
62025;BME280;47978;49.118;12.146;2023-04-05T00:43:30;98015.22;;;-0.88;67.93
62025;BME280;47978;49.118;12.146;2023-04-05T00:47:31;98014.41;;;-0.89;69.69
62025;BME280;47978;49.118;12.146;2023-04-05T00:51:34;98007.75;;;-0.93;71.20
62025;BME280;47978;49.118;12.146;2023-04-05T00:55:35;98014.34;;;-1.07;71.13
62025;BME280;47978;49.118;12.146;2023-04-05T00:59:36;98012.25;;;-1.12;71.12
62025;BME280;47978;49.118;12.146;2023-04-05T01:03:40;98007.50;;;-1.17;72.34
62025;BME280;47978;49.118;12.146;2023-04-05T01:07:45;98006.00;;;-1.13;71.12
62025;BME280;47978;49.118;12.146;2023-04-05T01:11:50;98009.31;;;-1.42;72.58
62025;BME280;47978;49.118;12.146;2023-04-05T01:15:52;97999.94;;;-1.46;72.47
62025;BME280;47978;49.118;12.146;2023-04-05T01:19:55;98003.97;;;-1.55;73.38
62025;BME280;47978;49.118;12.146;2023-04-05T01:24:01;98001.00;;;-1.54;73.53
62025;BME280;47978;49.118;12.146;2023-04-05T01:28:17;98008.69;;;-1.44;72.63
62025;BME280;47978;49.118;12.146;2023-04-05T01:32:27;98001.13;;;-1.81;73.82
62025;BME280;47978;49.118;12.146;2023-04-05T01:36:32;98006.28;;;-1.66;73.63
62025;BME280;47978;49.118;12.146;2023-04-05T01:40:37;98006.59;;;-1.87;74.41
62025;BME280;47978;49.118;12.146;2023-04-05T01:44:38;98007.63;;;-1.88;74.80
62025;BME280;47978;49.118;12.146;2023-04-05T01:48:41;98005.97;;;-1.89;74.05
62025;BME280;47978;49.118;12.146;2023-04-05T01:52:43;98001.88;;;-2.12;74.82
62025;BME280;47978;49.118;12.146;2023-04-05T01:56:44;98008.94;;;-2.11;74.63
62025;BME280;47978;49.118;12.146;2023-04-05T02:00:45;97998.97;;;-2.23;74.42
62025;BME280;47978;49.118;12.146;2023-04-05T02:04:48;97998.56;;;-2.27;74.50
62025;BME280;47978;49.118;12.146;2023-04-05T02:08:49;97994.38;;;-2.23;74.42
62025;BME280;47978;49.118;12.146;2023-04-05T02:12:51;97992.13;;;-2.39;74.86
62025;BME280;47978;49.118;12.146;2023-04-05T02:16:52;97986.91;;;-2.34;74.60
62025;BME280;47978;49.118;12.146;2023-04-05T02:20:59;97987.78;;;-2.47;75.06
62025;BME280;47978;49.118;12.146;2023-04-05T02:25:01;97974.47;;;-2.55;75.19
62025;BME280;47978;49.118;12.146;2023-04-05T02:29:02;97973.81;;;-2.51;75.31
62025;BME280;47978;49.118;12.146;2023-04-05T02:33:03;97975.50;;;-2.63;75.72
62025;BME280;47978;49.118;12.146;2023-04-05T02:37:06;97974.66;;;-2.77;76.33
62025;BME280;47978;49.118;12.146;2023-04-05T02:41:08;97975.28;;;-2.68;76.05
62025;BME280;47978;49.118;12.146;2023-04-05T02:45:10;97968.84;;;-2.80;76.18
62025;BME280;47978;49.118;12.146;2023-04-05T02:49:11;97968.22;;;-2.82;76.10
62025;BME280;47978;49.118;12.146;2023-04-05T02:53:14;97971.34;;;-2.92;76.48
62025;BME280;47978;49.118;12.146;2023-04-05T02:57:15;97968.66;;;-2.92;76.56
62025;BME280;47978;49.118;12.146;2023-04-05T03:01:17;97967.81;;;-2.99;76.66
62025;BME280;47978;49.118;12.146;2023-04-05T03:05:18;97969.88;;;-3.08;77.13
62025;BME280;47978;49.118;12.146;2023-04-05T03:09:21;97973.22;;;-3.06;76.85
62025;BME280;47978;49.118;12.146;2023-04-05T03:13:22;97957.81;;;-3.05;77.20
62025;BME280;47978;49.118;12.146;2023-04-05T03:17:23;97951.16;;;-3.09;76.86
62025;BME280;47978;49.118;12.146;2023-04-05T03:21:25;97957.00;;;-3.12;77.15
62025;BME280;47978;49.118;12.146;2023-04-05T03:25:28;97955.72;;;-3.17;77.50
62025;BME280;47978;49.118;12.146;2023-04-05T03:29:29;97960.94;;;-3.15;77.32
62025;BME280;47978;49.118;12.146;2023-04-05T03:33:31;97952.41;;;-3.25;77.62
62025;BME280;47978;49.118;12.146;2023-04-05T03:37:32;97956.75;;;-3.31;77.58
62025;BME280;47978;49.118;12.146;2023-04-05T03:41:35;97956.16;;;-3.26;77.54
62025;BME280;47978;49.118;12.146;2023-04-05T03:45:36;97952.38;;;-3.45;78.45
62025;BME280;47978;49.118;12.146;2023-04-05T03:49:38;97950.13;;;-3.35;77.83
62025;BME280;47978;49.118;12.146;2023-04-05T03:53:39;97949.44;;;-3.50;78.27
62025;BME280;47978;49.118;12.146;2023-04-05T03:57:42;97956.31;;;-3.54;78.44
62025;BME280;47978;49.118;12.146;2023-04-05T04:01:43;97957.34;;;-3.55;78.47
62025;BME280;47978;49.118;12.146;2023-04-05T04:05:45;97947.78;;;-3.58;78.65
62025;BME280;47978;49.118;12.146;2023-04-05T04:09:47;97949.66;;;-3.58;78.70
62025;BME280;47978;49.118;12.146;2023-04-05T04:13:50;97950.06;;;-3.55;78.84
62025;BME280;47978;49.118;12.146;2023-04-05T04:17:51;97948.19;;;-3.61;78.85
62025;BME280;47978;49.118;12.146;2023-04-05T04:21:52;97959.41;;;-3.64;79.10
62025;BME280;47978;49.118;12.146;2023-04-05T04:25:54;97950.44;;;-3.71;79.16
62025;BME280;47978;49.118;12.146;2023-04-05T04:29:56;97953.97;;;-3.77;79.60
62025;BME280;47978;49.118;12.146;2023-04-05T04:33:58;97948.16;;;-3.74;79.21
62025;BME280;47978;49.118;12.146;2023-04-05T04:38:00;97955.63;;;-3.76;79.42
62025;BME280;47978;49.118;12.146;2023-04-05T04:42:02;97955.19;;;-3.87;79.83
62025;BME280;47978;49.118;12.146;2023-04-05T04:46:05;97954.56;;;-3.82;79.83
62025;BME280;47978;49.118;12.146;2023-04-05T04:50:07;97950.63;;;-3.79;79.98
62025;BME280;47978;49.118;12.146;2023-04-05T04:54:08;97951.50;;;-3.72;79.68
62025;BME280;47978;49.118;12.146;2023-04-05T04:58:10;97950.25;;;-3.70;79.27
62025;BME280;47978;49.118;12.146;2023-04-05T05:02:13;97945.91;;;-3.64;78.92
62025;BME280;47978;49.118;12.146;2023-04-05T05:06:15;97951.50;;;-3.66;79.25
62025;BME280;47978;49.118;12.146;2023-04-05T05:10:16;97950.88;;;-3.68;79.41
62025;BME280;47978;49.118;12.146;2023-04-05T05:14:18;97958.97;;;-3.74;79.55
62025;BME280;47978;49.118;12.146;2023-04-05T05:18:21;97953.97;;;-3.77;79.93
62025;BME280;47978;49.118;12.146;2023-04-05T05:22:22;97958.56;;;-3.65;79.68
62025;BME280;47978;49.118;12.146;2023-04-05T05:26:23;97955.91;;;-3.58;79.56
62025;BME280;47978;49.118;12.146;2023-04-05T05:30:25;97954.47;;;-3.41;78.86
62025;BME280;47978;49.118;12.146;2023-04-05T05:34:27;97960.69;;;-3.33;78.61
62025;BME280;47978;49.118;12.146;2023-04-05T05:38:29;97958.44;;;-3.17;78.35
62025;BME280;47978;49.118;12.146;2023-04-05T05:42:30;97958.47;;;-3.10;78.17
62025;BME280;47978;49.118;12.146;2023-04-05T05:46:32;97959.06;;;-2.88;77.56
62025;BME280;47978;49.118;12.146;2023-04-05T05:50:34;97964.25;;;-2.66;77.15
62025;BME280;47978;49.118;12.146;2023-04-05T05:54:36;97967.78;;;-2.59;76.78
62025;BME280;47978;49.118;12.146;2023-04-05T05:58:37;97978.59;;;-2.46;76.44
62025;BME280;47978;49.118;12.146;2023-04-05T06:02:39;97981.88;;;-2.17;75.70
62025;BME280;47978;49.118;12.146;2023-04-05T06:06:42;97977.66;;;-1.93;75.16
62025;BME280;47978;49.118;12.146;2023-04-05T06:10:43;97974.13;;;-1.55;74.41
62025;BME280;47978;49.118;12.146;2023-04-05T06:14:45;97976.22;;;-1.19;73.23
62025;BME280;47978;49.118;12.146;2023-04-05T06:18:46;97974.50;;;-0.88;71.90
62025;BME280;47978;49.118;12.146;2023-04-05T06:22:49;97985.22;;;-0.69;71.66
62025;BME280;47978;49.118;12.146;2023-04-05T06:26:50;97989.28;;;-0.34;70.78
62025;BME280;47978;49.118;12.146;2023-04-05T06:30:52;97978.53;;;-0.04;69.36
62025;BME280;47978;49.118;12.146;2023-04-05T06:34:53;97978.72;;;0.31;68.68
62025;BME280;47978;49.118;12.146;2023-04-05T06:38:56;97978.78;;;0.61;68.29
62025;BME280;47978;49.118;12.146;2023-04-05T06:42:58;97972.44;;;1.09;67.32
62025;BME280;47978;49.118;12.146;2023-04-05T06:46:59;97973.81;;;1.54;65.06
62025;BME280;47978;49.118;12.146;2023-04-05T06:51:01;97975.56;;;1.84;62.64
62025;BME280;47978;49.118;12.146;2023-04-05T06:55:04;97969.75;;;2.03;62.29
62025;BME280;47978;49.118;12.146;2023-04-05T06:59:06;97980.97;;;2.31;61.76
62025;BME280;47978;49.118;12.146;2023-04-05T07:03:07;97985.16;;;2.50;62.29
62025;BME280;47978;49.118;12.146;2023-04-05T07:07:08;97976.72;;;3.09;59.68
62025;BME280;47978;49.118;12.146;2023-04-05T07:11:11;97973.63;;;3.34;58.75
62025;BME280;47978;49.118;12.146;2023-04-05T07:15:13;97968.38;;;3.66;56.39
62025;BME280;47978;49.118;12.146;2023-04-05T07:19:15;97968.69;;;3.87;54.59
62025;BME280;47978;49.118;12.146;2023-04-05T07:23:16;97959.72;;;4.08;51.95
62025;BME280;47978;49.118;12.146;2023-04-05T07:27:19;97948.97;;;4.45;52.71
62025;BME280;47978;49.118;12.146;2023-04-05T07:31:20;97958.16;;;4.83;47.51
62025;BME280;47978;49.118;12.146;2023-04-05T07:35:22;97953.81;;;5.14;46.26
62025;BME280;47978;49.118;12.146;2023-04-05T07:39:23;97954.22;;;5.28;45.08
62025;BME280;47978;49.118;12.146;2023-04-05T07:43:26;97956.00;;;5.45;45.71
62025;BME280;47978;49.118;12.146;2023-04-05T07:47:27;97955.38;;;5.37;43.75
62025;BME280;47978;49.118;12.146;2023-04-05T07:51:29;97956.66;;;5.25;43.02
62025;BME280;47978;49.118;12.146;2023-04-05T07:55:30;97958.25;;;5.21;43.88
62025;BME280;47978;49.118;12.146;2023-04-05T07:59:33;97951.94;;;5.20;41.44
62025;BME280;47978;49.118;12.146;2023-04-05T08:03:34;97950.91;;;5.26;41.24
62025;BME280;47978;49.118;12.146;2023-04-05T08:07:36;97946.34;;;5.37;42.66
62025;BME280;47978;49.118;12.146;2023-04-05T08:11:38;97940.84;;;5.74;42.46
62025;BME280;47978;49.118;12.146;2023-04-05T08:15:40;97946.38;;;6.17;41.59
62025;BME280;47978;49.118;12.146;2023-04-05T08:19:42;97946.50;;;6.42;41.67
62025;BME280;47978;49.118;12.146;2023-04-05T08:23:43;97935.22;;;5.91;40.77
62025;BME280;47978;49.118;12.146;2023-04-05T08:27:44;97934.38;;;5.91;42.88
62025;BME280;47978;49.118;12.146;2023-04-05T08:31:47;97927.25;;;6.32;42.45
62025;BME280;47978;49.118;12.146;2023-04-05T08:35:49;97935.56;;;6.63;40.31
62025;BME280;47978;49.118;12.146;2023-04-05T08:39:50;97929.88;;;6.74;37.79
62025;BME280;47978;49.118;12.146;2023-04-05T08:43:55;97930.22;;;6.25;37.67
62025;BME280;47978;49.118;12.146;2023-04-05T08:47:58;97920.69;;;6.48;38.51
62025;BME280;47978;49.118;12.146;2023-04-05T08:51:59;97922.94;;;6.62;38.91
62025;BME280;47978;49.118;12.146;2023-04-05T08:56:01;97924.13;;;6.86;37.68
62025;BME280;47978;49.118;12.146;2023-04-05T09:00:03;97921.41;;;7.17;37.28
62025;BME280;47978;49.118;12.146;2023-04-05T09:04:08;97918.59;;;6.81;37.27
62025;BME280;47978;49.118;12.146;2023-04-05T09:08:11;97917.81;;;7.01;36.03
62025;BME280;47978;49.118;12.146;2023-04-05T09:12:13;97908.34;;;6.51;39.40
62025;BME280;47978;49.118;12.146;2023-04-05T09:16:14;97909.09;;;6.31;37.95
62025;BME280;47978;49.118;12.146;2023-04-05T09:20:18;97916.59;;;6.51;37.87
62025;BME280;47978;49.118;12.146;2023-04-05T09:24:23;97906.41;;;6.46;36.62
62025;BME280;47978;49.118;12.146;2023-04-05T09:28:39;97906.53;;;7.03;36.21
62025;BME280;47978;49.118;12.146;2023-04-05T09:32:44;97899.97;;;7.29;35.45
62025;BME280;47978;49.118;12.146;2023-04-05T09:36:48;97900.78;;;7.45;34.55
62025;BME280;47978;49.118;12.146;2023-04-05T09:40:49;97902.72;;;7.44;34.58
62025;BME280;47978;49.118;12.146;2023-04-05T09:44:51;97908.50;;;7.17;34.64
62025;BME280;47978;49.118;12.146;2023-04-05T09:48:53;97895.56;;;7.28;35.92
62025;BME280;47978;49.118;12.146;2023-04-05T09:53:05;97892.25;;;7.41;35.37
62025;BME280;47978;49.118;12.146;2023-04-05T09:57:07;97904.34;;;6.94;36.11
62025;BME280;47978;49.118;12.146;2023-04-05T10:01:10;97910.66;;;6.90;34.49
62025;BME280;47978;49.118;12.146;2023-04-05T10:05:17;97903.97;;;6.55;35.09
62025;BME280;47978;49.118;12.146;2023-04-05T10:09:20;97896.78;;;6.39;34.32
62025;BME280;47978;49.118;12.146;2023-04-05T10:13:22;97895.69;;;6.45;36.09
62025;BME280;47978;49.118;12.146;2023-04-05T10:17:23;97896.88;;;6.01;35.87
62025;BME280;47978;49.118;12.146;2023-04-05T10:21:28;97888.56;;;6.44;37.08
62025;BME280;47978;49.118;12.146;2023-04-05T10:25:38;97886.38;;;6.51;36.50
62025;BME280;47978;49.118;12.146;2023-04-05T10:29:42;97887.50;;;6.65;36.15
62025;BME280;47978;49.118;12.146;2023-04-05T10:33:48;97883.38;;;6.68;36.10
62025;BME280;47978;49.118;12.146;2023-04-05T10:37:58;97872.94;;;6.55;36.32
62025;BME280;47978;49.118;12.146;2023-04-05T10:42:05;97877.03;;;6.47;36.68
62025;BME280;47978;49.118;12.146;2023-04-05T10:46:07;97871.31;;;6.64;35.63
62025;BME280;47978;49.118;12.146;2023-04-05T10:50:11;97871.88;;;6.76;35.74
62025;BME280;47978;49.118;12.146;2023-04-05T10:54:16;97868.03;;;6.72;35.85
62025;BME280;47978;49.118;12.146;2023-04-05T10:58:21;97871.00;;;6.65;35.91
62025;BME280;47978;49.118;12.146;2023-04-05T11:02:22;97870.75;;;6.67;35.57
62025;BME280;47978;49.118;12.146;2023-04-05T11:06:29;97870.19;;;6.65;35.00
62025;BME280;47978;49.118;12.146;2023-04-05T11:10:32;97872.16;;;6.80;35.30
62025;BME280;47978;49.118;12.146;2023-04-05T11:14:36;97862.00;;;6.95;35.42
62025;BME280;47978;49.118;12.146;2023-04-05T11:18:42;97851.53;;;6.72;35.33
62025;BME280;47978;49.118;12.146;2023-04-05T11:22:45;97851.28;;;6.89;35.85
62025;BME280;47978;49.118;12.146;2023-04-05T11:26:54;97858.13;;;6.91;34.71
62025;BME280;47978;49.118;12.146;2023-04-05T11:30:57;97838.63;;;7.24;37.80
62025;BME280;47978;49.118;12.146;2023-04-05T11:35:12;97842.22;;;7.34;35.45
62025;BME280;47978;49.118;12.146;2023-04-05T11:39:26;97834.22;;;7.02;34.91
62025;BME280;47978;49.118;12.146;2023-04-05T11:43:28;97833.97;;;7.04;36.18
62025;BME280;47978;49.118;12.146;2023-04-05T11:47:31;97832.31;;;7.23;35.61
62025;BME280;47978;49.118;12.146;2023-04-05T11:51:37;97838.63;;;7.44;34.72
62025;BME280;47978;49.118;12.146;2023-04-05T11:55:41;97828.94;;;7.67;36.08
62025;BME280;47978;49.118;12.146;2023-04-05T11:59:43;97834.44;;;7.62;35.82
62025;BME280;47978;49.118;12.146;2023-04-05T12:03:49;97823.25;;;8.18;35.29
62025;BME280;47978;49.118;12.146;2023-04-05T12:07:53;97821.72;;;7.92;34.99
62025;BME280;47978;49.118;12.146;2023-04-05T12:11:54;97820.13;;;7.65;35.48
62025;BME280;47978;49.118;12.146;2023-04-05T12:15:59;97811.38;;;7.42;34.82
62025;BME280;47978;49.118;12.146;2023-04-05T12:20:02;97809.41;;;7.69;35.76
62025;BME280;47978;49.118;12.146;2023-04-05T12:24:04;97815.63;;;8.00;33.82
62025;BME280;47978;49.118;12.146;2023-04-05T12:28:06;97810.31;;;8.14;33.60
62025;BME280;47978;49.118;12.146;2023-04-05T12:32:07;97799.38;;;8.03;34.18
62025;BME280;47978;49.118;12.146;2023-04-05T12:36:10;97806.47;;;8.20;34.42
62025;BME280;47978;49.118;12.146;2023-04-05T12:40:18;97800.16;;;8.09;35.02
62025;BME280;47978;49.118;12.146;2023-04-05T12:44:26;97790.72;;;8.25;33.43
62025;BME280;47978;49.118;12.146;2023-04-05T12:48:28;97782.72;;;8.24;33.39
62025;BME280;47978;49.118;12.146;2023-04-05T12:52:31;97783.50;;;8.34;34.23
62025;BME280;47978;49.118;12.146;2023-04-05T12:56:32;97781.97;;;8.13;32.82
62025;BME280;47978;49.118;12.146;2023-04-05T13:00:33;97776.78;;;8.56;33.72
62025;BME280;47978;49.118;12.146;2023-04-05T13:04:35;97771.38;;;8.80;33.28
62025;BME280;47978;49.118;12.146;2023-04-05T13:08:38;97761.28;;;8.99;31.87
62025;BME280;47978;49.118;12.146;2023-04-05T13:12:39;97765.97;;;8.99;32.07
62025;BME280;47978;49.118;12.146;2023-04-05T13:16:40;97762.06;;;9.34;34.22
62025;BME280;47978;49.118;12.146;2023-04-05T13:20:42;97766.00;;;9.52;31.91
62025;BME280;47978;49.118;12.146;2023-04-05T13:24:45;97759.13;;;9.50;32.53
62025;BME280;47978;49.118;12.146;2023-04-05T13:28:46;97760.31;;;9.43;32.90
62025;BME280;47978;49.118;12.146;2023-04-05T13:32:47;97753.69;;;9.15;32.13
62025;BME280;47978;49.118;12.146;2023-04-05T13:36:49;97756.03;;;8.69;32.93
62025;BME280;47978;49.118;12.146;2023-04-05T13:40:52;97747.78;;;8.64;32.43
62025;BME280;47978;49.118;12.146;2023-04-05T13:44:53;97751.00;;;8.31;33.37
62025;BME280;47978;49.118;12.146;2023-04-05T13:48:55;97745.22;;;8.28;33.25
62025;BME280;47978;49.118;12.146;2023-04-05T13:52:56;97737.59;;;8.20;33.66
62025;BME280;47978;49.118;12.146;2023-04-05T13:56:59;97744.41;;;8.27;33.49
62025;BME280;47978;49.118;12.146;2023-04-05T14:01:01;97724.78;;;8.44;34.54
62025;BME280;47978;49.118;12.146;2023-04-05T14:05:02;97714.06;;;8.77;33.23
62025;BME280;47978;49.118;12.146;2023-04-05T14:09:04;97718.59;;;9.21;33.58
62025;BME280;47978;49.118;12.146;2023-04-05T14:13:07;97727.34;;;9.28;33.44
62025;BME280;47978;49.118;12.146;2023-04-05T14:17:08;97721.44;;;9.40;33.21
62025;BME280;47978;49.118;12.146;2023-04-05T14:21:09;97725.06;;;9.35;32.70
62025;BME280;47978;49.118;12.146;2023-04-05T14:25:11;97714.72;;;9.22;33.38
62025;BME280;47978;49.118;12.146;2023-04-05T14:29:15;97714.53;;;9.13;33.50
62025;BME280;47978;49.118;12.146;2023-04-05T14:33:17;97718.94;;;9.14;33.71
62025;BME280;47978;49.118;12.146;2023-04-05T14:37:18;97722.09;;;9.03;33.41
62025;BME280;47978;49.118;12.146;2023-04-05T14:41:20;97717.25;;;8.89;34.60
62025;BME280;47978;49.118;12.146;2023-04-05T14:45:22;97707.63;;;8.87;34.36
62025;BME280;47978;49.118;12.146;2023-04-05T14:49:24;97709.94;;;8.74;34.47
62025;BME280;47978;49.118;12.146;2023-04-05T14:53:25;97711.56;;;8.75;34.17
62025;BME280;47978;49.118;12.146;2023-04-05T14:57:26;97706.28;;;8.79;33.60
62025;BME280;47978;49.118;12.146;2023-04-05T15:01:29;97702.97;;;8.82;34.04
62025;BME280;47978;49.118;12.146;2023-04-05T15:05:31;97699.66;;;8.85;35.00
62025;BME280;47978;49.118;12.146;2023-04-05T15:09:32;97704.03;;;8.86;34.90
62025;BME280;47978;49.118;12.146;2023-04-05T15:13:33;97700.69;;;8.89;34.27
62025;BME280;47978;49.118;12.146;2023-04-05T15:17:36;97691.41;;;8.80;34.58
62025;BME280;47978;49.118;12.146;2023-04-05T15:21:37;97687.13;;;8.64;33.90
62025;BME280;47978;49.118;12.146;2023-04-05T15:25:39;97685.84;;;8.85;34.44
62025;BME280;47978;49.118;12.146;2023-04-05T15:29:40;97682.75;;;8.92;34.39
62025;BME280;47978;49.118;12.146;2023-04-05T15:33:43;97690.66;;;8.35;34.91
62025;BME280;47978;49.118;12.146;2023-04-05T15:37:44;97684.31;;;8.40;35.56
62025;BME280;47978;49.118;12.146;2023-04-05T15:41:46;97692.69;;;8.59;35.14
62025;BME280;47978;49.118;12.146;2023-04-05T15:45:47;97688.75;;;8.70;35.36
62025;BME280;47978;49.118;12.146;2023-04-05T15:49:50;97695.59;;;8.72;35.37
62025;BME280;47978;49.118;12.146;2023-04-05T15:53:51;97696.31;;;8.54;35.29
62025;BME280;47978;49.118;12.146;2023-04-05T15:57:52;97700.75;;;8.50;35.20
62025;BME280;47978;49.118;12.146;2023-04-05T16:01:54;97694.25;;;8.30;35.97
62025;BME280;47978;49.118;12.146;2023-04-05T16:05:57;97691.25;;;8.27;35.83
62025;BME280;47978;49.118;12.146;2023-04-05T16:09:58;97693.81;;;8.13;36.52
62025;BME280;47978;49.118;12.146;2023-04-05T16:13:59;97696.53;;;8.23;35.91
62025;BME280;47978;49.118;12.146;2023-04-05T16:18:01;97688.25;;;8.23;35.49
62025;BME280;47978;49.118;12.146;2023-04-05T16:22:04;97690.91;;;8.39;35.89
62025;BME280;47978;49.118;12.146;2023-04-05T16:26:05;97682.88;;;8.42;35.50
62025;BME280;47978;49.118;12.146;2023-04-05T16:30:07;97694.03;;;8.22;35.42
62025;BME280;47978;49.118;12.146;2023-04-05T16:34:09;97696.28;;;8.20;35.99
62025;BME280;47978;49.118;12.146;2023-04-05T16:38:12;97685.00;;;8.11;36.88
62025;BME280;47978;49.118;12.146;2023-04-05T16:42:13;97685.53;;;8.18;36.19
62025;BME280;47978;49.118;12.146;2023-04-05T16:46:14;97691.75;;;8.34;35.86
62025;BME280;47978;49.118;12.146;2023-04-05T16:50:16;97692.03;;;8.32;38.60
62025;BME280;47978;49.118;12.146;2023-04-05T16:54:19;97690.34;;;8.42;42.19
62025;BME280;47978;49.118;12.146;2023-04-05T16:58:20;97686.03;;;8.25;39.99
62025;BME280;47978;49.118;12.146;2023-04-05T17:02:21;97694.56;;;8.24;40.54
62025;BME280;47978;49.118;12.146;2023-04-05T17:06:23;97697.59;;;8.22;41.68
62025;BME280;47978;49.118;12.146;2023-04-05T17:10:26;97698.84;;;8.01;41.47
62025;BME280;47978;49.118;12.146;2023-04-05T17:14:27;97698.06;;;7.95;42.75
62025;BME280;47978;49.118;12.146;2023-04-05T17:18:28;97702.41;;;7.52;44.07
62025;BME280;47978;49.118;12.146;2023-04-05T17:22:30;97705.25;;;7.26;45.62
62025;BME280;47978;49.118;12.146;2023-04-05T17:26:32;97708.88;;;6.96;46.74
62025;BME280;47978;49.118;12.146;2023-04-05T17:30:34;97710.28;;;6.68;48.31
62025;BME280;47978;49.118;12.146;2023-04-05T17:34:35;97711.63;;;6.24;49.49
62025;BME280;47978;49.118;12.146;2023-04-05T17:38:37;97714.53;;;5.82;50.34
62025;BME280;47978;49.118;12.146;2023-04-05T17:42:39;97719.91;;;5.51;51.72
62025;BME280;47978;49.118;12.146;2023-04-05T17:46:41;97721.44;;;5.27;52.14
62025;BME280;47978;49.118;12.146;2023-04-05T17:50:51;97722.09;;;4.96;53.12
62025;BME280;47978;49.118;12.146;2023-04-05T17:54:52;97721.13;;;4.76;53.79
62025;BME280;47978;49.118;12.146;2023-04-05T17:58:55;97723.22;;;4.63;54.29
62025;BME280;47978;49.118;12.146;2023-04-05T18:02:57;97725.84;;;4.16;55.12
62025;BME280;47978;49.118;12.146;2023-04-05T18:06:58;97727.94;;;3.81;56.40
62025;BME280;47978;49.118;12.146;2023-04-05T18:10:59;97736.09;;;3.54;56.90
62025;BME280;47978;49.118;12.146;2023-04-05T18:15:02;97742.88;;;3.30;57.65
62025;BME280;47978;49.118;12.146;2023-04-05T18:19:04;97750.31;;;2.96;58.90
62025;BME280;47978;49.118;12.146;2023-04-05T18:23:06;97744.53;;;2.92;58.66
62025;BME280;47978;49.118;12.146;2023-04-05T18:27:07;97749.78;;;2.60;59.55
62025;BME280;47978;49.118;12.146;2023-04-05T18:31:10;97760.53;;;2.50;59.81
62025;BME280;47978;49.118;12.146;2023-04-05T18:35:11;97760.59;;;2.21;61.00
62025;BME280;47978;49.118;12.146;2023-04-05T18:39:13;97764.75;;;1.95;61.93
62025;BME280;47978;49.118;12.146;2023-04-05T18:43:15;97771.84;;;1.96;62.13
62025;BME280;47978;49.118;12.146;2023-04-05T18:47:18;97772.66;;;1.79;62.64
62025;BME280;47978;49.118;12.146;2023-04-05T18:51:19;97776.03;;;1.58;62.80
62025;BME280;47978;49.118;12.146;2023-04-05T18:55:21;97781.88;;;1.38;63.97
62025;BME280;47978;49.118;12.146;2023-04-05T18:59:22;97788.16;;;1.39;63.51
62025;BME280;47978;49.118;12.146;2023-04-05T19:03:25;97791.59;;;1.22;64.05
62025;BME280;47978;49.118;12.146;2023-04-05T19:07:26;97791.13;;;1.13;63.97
62025;BME280;47978;49.118;12.146;2023-04-05T19:11:28;97803.59;;;1.09;63.83
62025;BME280;47978;49.118;12.146;2023-04-05T19:15:29;97795.91;;;1.06;63.93
62025;BME280;47978;49.118;12.146;2023-04-05T19:19:32;97795.41;;;1.09;64.21
62025;BME280;47978;49.118;12.146;2023-04-05T19:23:34;97802.66;;;0.92;64.60
62025;BME280;47978;49.118;12.146;2023-04-05T19:27:35;97800.88;;;0.98;64.89
62025;BME280;47978;49.118;12.146;2023-04-05T19:31:37;97802.41;;;0.94;65.53
62025;BME280;47978;49.118;12.146;2023-04-05T19:35:40;97810.34;;;0.95;65.68
62025;BME280;47978;49.118;12.146;2023-04-05T19:39:41;97797.28;;;0.74;66.73
62025;BME280;47978;49.118;12.146;2023-04-05T19:43:43;97798.38;;;0.73;67.08
62025;BME280;47978;49.118;12.146;2023-04-05T19:47:45;97798.03;;;0.69;67.08
62025;BME280;47978;49.118;12.146;2023-04-05T19:51:49;97796.47;;;0.73;67.08
62025;BME280;47978;49.118;12.146;2023-04-05T19:55:50;97800.28;;;0.72;68.27
62025;BME280;47978;49.118;12.146;2023-04-05T19:59:51;97793.53;;;0.63;68.88
62025;BME280;47978;49.118;12.146;2023-04-05T20:03:53;97794.69;;;0.67;68.67
62025;BME280;47978;49.118;12.146;2023-04-05T20:07:55;97790.91;;;0.56;69.08
62025;BME280;47978;49.118;12.146;2023-04-05T20:11:58;97794.88;;;0.42;70.15
62025;BME280;47978;49.118;12.146;2023-04-05T20:15:59;97787.59;;;0.54;69.84
62025;BME280;47978;49.118;12.146;2023-04-05T20:20:01;97786.41;;;0.50;69.52
62025;BME280;47978;49.118;12.146;2023-04-05T20:24:05;97791.38;;;0.53;69.33
62025;BME280;47978;49.118;12.146;2023-04-05T20:28:07;97791.50;;;0.58;69.37
62025;BME280;47978;49.118;12.146;2023-04-05T20:32:22;97788.91;;;0.52;69.75
62025;BME280;47978;49.118;12.146;2023-04-05T20:36:29;97786.50;;;0.43;70.05
62025;BME280;47978;49.118;12.146;2023-04-05T20:40:32;97785.78;;;0.36;70.67
62025;BME280;47978;49.118;12.146;2023-04-05T20:44:33;97789.09;;;0.38;70.45
62025;BME280;47978;49.118;12.146;2023-04-05T20:48:35;97784.94;;;0.36;70.71
62025;BME280;47978;49.118;12.146;2023-04-05T20:52:36;97795.13;;;0.29;70.98
62025;BME280;47978;49.118;12.146;2023-04-05T20:56:39;97794.66;;;0.32;70.96
62025;BME280;47978;49.118;12.146;2023-04-05T21:00:40;97798.66;;;0.29;70.45
62025;BME280;47978;49.118;12.146;2023-04-05T21:04:42;97792.88;;;0.37;71.08
62025;BME280;47978;49.118;12.146;2023-04-05T21:08:43;97797.44;;;0.25;70.97
62025;BME280;47978;49.118;12.146;2023-04-05T21:12:46;97799.53;;;0.11;71.16
62025;BME280;47978;49.118;12.146;2023-04-05T21:16:47;97798.47;;;0.01;70.99
62025;BME280;47978;49.118;12.146;2023-04-05T21:20:49;97798.53;;;-0.06;71.15